Dickinson, North Dakota
Current Conditions -  °F | °C
As of 10:56 AM on Saturday 22 Nov 2014 (Local Time) from KDIK Reporting Station
Overcast Overcast  
Wind Chill: 32°   Ceiling: 9000
Heat Index: 40°   Visibility: 10mi
Dew Point: 27°   Wind: 14mph
Humidity: 60%   Direction: 190°S
Pressure: 29.34"   Gusts: NA
Location:  46.88°N, 102.79°W
Report Text: KDIK 221756Z AUTO 19012KT 10SM OVC090 04/M03 A2934 RMK AO2 SLP949 T00441028 10044 21011 58027
Loading
Personal Weather Stations






























Interactive Weather Map New forecast layout! Learn more

10-Day Weather Forecast

Advertisements
Track Severe Weather on mobile